sensor_id;sensor_type;location;lat;lon;timestamp;P1;durP1;ratioP1;P2;durP2;ratioP2
15317;SDS011;7759;52.528;13.346;2024-03-02T00:00:51;31.27;;;17.30;;
15317;SDS011;7759;52.528;13.346;2024-03-02T00:03:17;26.47;;;14.53;;
15317;SDS011;7759;52.528;13.346;2024-03-02T00:05:43;22.10;;;13.37;;
15317;SDS011;7759;52.528;13.346;2024-03-02T00:08:11;25.63;;;14.83;;
15317;SDS011;7759;52.528;13.346;2024-03-02T00:10:38;26.13;;;15.20;;
15317;SDS011;7759;52.528;13.346;2024-03-02T00:13:05;27.30;;;16.10;;
15317;SDS011;7759;52.528;13.346;2024-03-02T00:15:36;32.13;;;17.23;;
15317;SDS011;7759;52.528;13.346;2024-03-02T00:18:04;33.13;;;18.00;;
15317;SDS011;7759;52.528;13.346;2024-03-02T00:20:30;36.53;;;19.07;;
15317;SDS011;7759;52.528;13.346;2024-03-02T00:22:59;31.83;;;18.47;;
15317;SDS011;7759;52.528;13.346;2024-03-02T00:25:38;34.27;;;19.10;;
15317;SDS011;7759;52.528;13.346;2024-03-02T00:28:05;30.13;;;18.87;;
15317;SDS011;7759;52.528;13.346;2024-03-02T00:33:09;31.27;;;18.03;;
15317;SDS011;7759;52.528;13.346;2024-03-02T00:35:36;29.77;;;17.57;;
15317;SDS011;7759;52.528;13.346;2024-03-02T00:38:05;27.90;;;16.73;;
15317;SDS011;7759;52.528;13.346;2024-03-02T00:40:31;30.10;;;16.27;;
15317;SDS011;7759;52.528;13.346;2024-03-02T00:42:57;28.73;;;16.80;;
15317;SDS011;7759;52.528;13.346;2024-03-02T00:45:23;28.17;;;15.47;;
15317;SDS011;7759;52.528;13.346;2024-03-02T00:47:50;33.37;;;17.67;;
15317;SDS011;7759;52.528;13.346;2024-03-02T00:50:16;32.03;;;18.03;;
15317;SDS011;7759;52.528;13.346;2024-03-02T00:52:42;33.67;;;18.57;;
15317;SDS011;7759;52.528;13.346;2024-03-02T00:55:08;25.63;;;15.33;;
15317;SDS011;7759;52.528;13.346;2024-03-02T00:57:35;28.30;;;14.23;;
15317;SDS011;7759;52.528;13.346;2024-03-02T01:00:01;28.97;;;15.67;;
15317;SDS011;7759;52.528;13.346;2024-03-02T01:02:28;31.53;;;16.10;;
15317;SDS011;7759;52.528;13.346;2024-03-02T01:04:54;34.57;;;16.37;;
15317;SDS011;7759;52.528;13.346;2024-03-02T01:07:20;24.37;;;15.40;;
15317;SDS011;7759;52.528;13.346;2024-03-02T01:09:46;26.93;;;15.17;;
15317;SDS011;7759;52.528;13.346;2024-03-02T01:12:11;26.03;;;16.07;;
15317;SDS011;7759;52.528;13.346;2024-03-02T01:14:37;29.00;;;16.93;;
15317;SDS011;7759;52.528;13.346;2024-03-02T01:17:03;36.57;;;20.43;;
15317;SDS011;7759;52.528;13.346;2024-03-02T01:19:29;32.60;;;17.60;;
15317;SDS011;7759;52.528;13.346;2024-03-02T01:21:55;32.17;;;16.27;;
15317;SDS011;7759;52.528;13.346;2024-03-02T01:24:21;32.10;;;16.50;;
15317;SDS011;7759;52.528;13.346;2024-03-02T01:26:47;32.00;;;16.10;;
15317;SDS011;7759;52.528;13.346;2024-03-02T01:29:13;28.43;;;16.23;;
15317;SDS011;7759;52.528;13.346;2024-03-02T01:31:39;28.07;;;16.77;;
15317;SDS011;7759;52.528;13.346;2024-03-02T01:34:07;35.57;;;18.80;;
15317;SDS011;7759;52.528;13.346;2024-03-02T01:36:33;32.77;;;17.47;;
15317;SDS011;7759;52.528;13.346;2024-03-02T01:38:59;32.93;;;16.33;;
15317;SDS011;7759;52.528;13.346;2024-03-02T01:41:25;26.40;;;15.23;;
15317;SDS011;7759;52.528;13.346;2024-03-02T01:43:51;31.57;;;17.10;;
15317;SDS011;7759;52.528;13.346;2024-03-02T01:46:17;30.47;;;17.97;;
15317;SDS011;7759;52.528;13.346;2024-03-02T01:48:43;39.40;;;18.70;;
15317;SDS011;7759;52.528;13.346;2024-03-02T01:51:09;34.57;;;18.00;;
15317;SDS011;7759;52.528;13.346;2024-03-02T01:53:35;35.73;;;19.30;;
15317;SDS011;7759;52.528;13.346;2024-03-02T01:56:01;37.83;;;16.97;;
15317;SDS011;7759;52.528;13.346;2024-03-02T01:58:27;30.97;;;16.97;;
15317;SDS011;7759;52.528;13.346;2024-03-02T02:00:53;31.70;;;18.17;;
15317;SDS011;7759;52.528;13.346;2024-03-02T02:03:19;31.60;;;16.87;;
15317;SDS011;7759;52.528;13.346;2024-03-02T02:05:45;29.50;;;16.77;;
15317;SDS011;7759;52.528;13.346;2024-03-02T02:08:12;33.53;;;18.40;;
15317;SDS011;7759;52.528;13.346;2024-03-02T02:10:38;25.37;;;15.57;;
15317;SDS011;7759;52.528;13.346;2024-03-02T02:13:04;32.70;;;16.77;;
15317;SDS011;7759;52.528;13.346;2024-03-02T02:15:30;30.47;;;17.00;;
15317;SDS011;7759;52.528;13.346;2024-03-02T02:17:57;33.77;;;17.87;;
15317;SDS011;7759;52.528;13.346;2024-03-02T02:20:23;30.23;;;17.40;;
15317;SDS011;7759;52.528;13.346;2024-03-02T02:22:56;31.33;;;17.10;;
15317;SDS011;7759;52.528;13.346;2024-03-02T02:25:22;30.53;;;17.27;;
15317;SDS011;7759;52.528;13.346;2024-03-02T02:27:48;28.77;;;17.50;;
15317;SDS011;7759;52.528;13.346;2024-03-02T02:30:14;35.57;;;18.73;;
15317;SDS011;7759;52.528;13.346;2024-03-02T02:32:43;29.27;;;16.87;;
15317;SDS011;7759;52.528;13.346;2024-03-02T02:35:09;26.90;;;17.13;;
15317;SDS011;7759;52.528;13.346;2024-03-02T02:37:35;34.53;;;17.40;;
15317;SDS011;7759;52.528;13.346;2024-03-02T02:40:01;31.00;;;17.87;;
15317;SDS011;7759;52.528;13.346;2024-03-02T02:42:27;32.23;;;17.87;;
15317;SDS011;7759;52.528;13.346;2024-03-02T02:44:53;36.97;;;18.87;;
15317;SDS011;7759;52.528;13.346;2024-03-02T02:47:18;36.17;;;18.00;;
15317;SDS011;7759;52.528;13.346;2024-03-02T02:49:44;34.43;;;19.10;;
15317;SDS011;7759;52.528;13.346;2024-03-02T02:52:11;37.50;;;18.60;;
15317;SDS011;7759;52.528;13.346;2024-03-02T02:54:37;35.37;;;17.47;;
15317;SDS011;7759;52.528;13.346;2024-03-02T02:57:03;34.83;;;18.83;;
15317;SDS011;7759;52.528;13.346;2024-03-02T02:59:29;34.20;;;19.10;;
15317;SDS011;7759;52.528;13.346;2024-03-02T03:01:55;32.97;;;17.93;;
15317;SDS011;7759;52.528;13.346;2024-03-02T03:04:21;31.63;;;17.60;;
15317;SDS011;7759;52.528;13.346;2024-03-02T03:06:46;37.67;;;19.17;;
15317;SDS011;7759;52.528;13.346;2024-03-02T03:09:12;38.27;;;19.07;;
15317;SDS011;7759;52.528;13.346;2024-03-02T03:11:38;32.00;;;17.67;;
15317;SDS011;7759;52.528;13.346;2024-03-02T03:14:04;34.30;;;18.10;;
15317;SDS011;7759;52.528;13.346;2024-03-02T03:16:30;32.20;;;18.50;;
15317;SDS011;7759;52.528;13.346;2024-03-02T03:18:56;35.00;;;18.33;;
15317;SDS011;7759;52.528;13.346;2024-03-02T03:21:22;31.87;;;17.97;;
15317;SDS011;7759;52.528;13.346;2024-03-02T03:23:48;37.20;;;19.20;;
15317;SDS011;7759;52.528;13.346;2024-03-02T03:26:14;27.37;;;15.57;;
15317;SDS011;7759;52.528;13.346;2024-03-02T03:28:40;32.70;;;18.97;;
15317;SDS011;7759;52.528;13.346;2024-03-02T03:31:06;31.67;;;18.60;;
15317;SDS011;7759;52.528;13.346;2024-03-02T03:33:32;32.07;;;18.13;;
15317;SDS011;7759;52.528;13.346;2024-03-02T03:35:57;32.23;;;17.50;;
15317;SDS011;7759;52.528;13.346;2024-03-02T03:38:23;31.03;;;17.27;;
15317;SDS011;7759;52.528;13.346;2024-03-02T03:40:49;30.50;;;17.10;;
15317;SDS011;7759;52.528;13.346;2024-03-02T03:43:15;32.13;;;17.30;;
15317;SDS011;7759;52.528;13.346;2024-03-02T03:45:41;29.03;;;16.63;;
15317;SDS011;7759;52.528;13.346;2024-03-02T03:48:07;28.00;;;17.10;;
15317;SDS011;7759;52.528;13.346;2024-03-02T03:50:34;27.07;;;16.50;;
15317;SDS011;7759;52.528;13.346;2024-03-02T03:52:59;29.27;;;16.43;;
15317;SDS011;7759;52.528;13.346;2024-03-02T03:55:25;28.43;;;17.50;;
15317;SDS011;7759;52.528;13.346;2024-03-02T03:57:51;32.07;;;17.63;;
15317;SDS011;7759;52.528;13.346;2024-03-02T04:00:17;29.97;;;17.37;;
15317;SDS011;7759;52.528;13.346;2024-03-02T04:02:43;30.27;;;18.00;;
15317;SDS011;7759;52.528;13.346;2024-03-02T04:05:09;29.17;;;17.57;;
15317;SDS011;7759;52.528;13.346;2024-03-02T04:07:36;29.03;;;16.30;;
15317;SDS011;7759;52.528;13.346;2024-03-02T04:10:05;30.80;;;17.57;;
15317;SDS011;7759;52.528;13.346;2024-03-02T04:12:33;28.27;;;16.07;;
15317;SDS011;7759;52.528;13.346;2024-03-02T04:14:58;29.10;;;17.17;;
15317;SDS011;7759;52.528;13.346;2024-03-02T04:17:24;30.73;;;17.47;;
15317;SDS011;7759;52.528;13.346;2024-03-02T04:19:50;34.87;;;17.53;;
15317;SDS011;7759;52.528;13.346;2024-03-02T04:22:16;28.23;;;16.20;;
15317;SDS011;7759;52.528;13.346;2024-03-02T04:24:42;28.50;;;15.53;;
15317;SDS011;7759;52.528;13.346;2024-03-02T04:27:08;26.43;;;16.00;;
15317;SDS011;7759;52.528;13.346;2024-03-02T04:29:34;29.93;;;17.77;;
15317;SDS011;7759;52.528;13.346;2024-03-02T04:32:00;26.73;;;14.80;;
15317;SDS011;7759;52.528;13.346;2024-03-02T04:34:26;27.10;;;15.67;;
15317;SDS011;7759;52.528;13.346;2024-03-02T04:36:52;27.70;;;15.43;;
15317;SDS011;7759;52.528;13.346;2024-03-02T04:39:17;25.47;;;15.07;;
15317;SDS011;7759;52.528;13.346;2024-03-02T04:41:44;25.60;;;14.73;;
15317;SDS011;7759;52.528;13.346;2024-03-02T04:44:10;29.87;;;14.97;;
15317;SDS011;7759;52.528;13.346;2024-03-02T04:46:35;26.37;;;14.10;;
15317;SDS011;7759;52.528;13.346;2024-03-02T04:49:01;28.13;;;16.07;;
15317;SDS011;7759;52.528;13.346;2024-03-02T04:51:27;26.07;;;14.77;;
15317;SDS011;7759;52.528;13.346;2024-03-02T04:53:53;26.27;;;14.27;;
15317;SDS011;7759;52.528;13.346;2024-03-02T04:56:19;27.33;;;14.70;;
15317;SDS011;7759;52.528;13.346;2024-03-02T04:58:48;24.47;;;14.80;;
15317;SDS011;7759;52.528;13.346;2024-03-02T05:01:13;27.63;;;15.20;;
15317;SDS011;7759;52.528;13.346;2024-03-02T05:03:41;23.97;;;14.53;;
15317;SDS011;7759;52.528;13.346;2024-03-02T05:06:07;30.63;;;15.67;;
15317;SDS011;7759;52.528;13.346;2024-03-02T05:08:33;27.30;;;14.30;;
15317;SDS011;7759;52.528;13.346;2024-03-02T05:10:59;28.17;;;15.53;;
15317;SDS011;7759;52.528;13.346;2024-03-02T05:13:45;23.10;;;13.73;;
15317;SDS011;7759;52.528;13.346;2024-03-02T05:16:11;24.30;;;15.13;;
15317;SDS011;7759;52.528;13.346;2024-03-02T05:18:37;26.30;;;15.40;;
15317;SDS011;7759;52.528;13.346;2024-03-02T05:21:03;27.50;;;15.70;;
15317;SDS011;7759;52.528;13.346;2024-03-02T05:23:29;22.73;;;13.80;;
15317;SDS011;7759;52.528;13.346;2024-03-02T05:25:55;26.40;;;16.17;;
15317;SDS011;7759;52.528;13.346;2024-03-02T05:28:21;28.90;;;16.10;;
15317;SDS011;7759;52.528;13.346;2024-03-02T05:30:47;28.40;;;15.77;;
15317;SDS011;7759;52.528;13.346;2024-03-02T05:33:14;24.40;;;14.47;;
15317;SDS011;7759;52.528;13.346;2024-03-02T05:35:40;30.90;;;15.83;;
15317;SDS011;7759;52.528;13.346;2024-03-02T05:38:06;27.70;;;15.43;;
15317;SDS011;7759;52.528;13.346;2024-03-02T05:40:32;27.70;;;14.90;;
15317;SDS011;7759;52.528;13.346;2024-03-02T05:42:58;23.43;;;14.27;;
15317;SDS011;7759;52.528;13.346;2024-03-02T05:45:23;25.17;;;15.50;;
15317;SDS011;7759;52.528;13.346;2024-03-02T05:47:49;23.47;;;14.50;;
15317;SDS011;7759;52.528;13.346;2024-03-02T05:50:15;29.03;;;16.37;;
15317;SDS011;7759;52.528;13.346;2024-03-02T05:52:41;25.27;;;16.13;;
15317;SDS011;7759;52.528;13.346;2024-03-02T05:55:07;27.10;;;16.97;;
15317;SDS011;7759;52.528;13.346;2024-03-02T05:57:33;28.30;;;16.23;;
15317;SDS011;7759;52.528;13.346;2024-03-02T06:00:14;29.40;;;16.63;;
15317;SDS011;7759;52.528;13.346;2024-03-02T06:02:41;28.53;;;16.77;;
15317;SDS011;7759;52.528;13.346;2024-03-02T06:05:07;33.97;;;16.37;;
15317;SDS011;7759;52.528;13.346;2024-03-02T06:07:33;27.27;;;15.03;;
15317;SDS011;7759;52.528;13.346;2024-03-02T06:09:59;27.13;;;15.07;;
15317;SDS011;7759;52.528;13.346;2024-03-02T06:12:25;35.70;;;18.87;;
15317;SDS011;7759;52.528;13.346;2024-03-02T06:14:51;28.93;;;15.87;;
15317;SDS011;7759;52.528;13.346;2024-03-02T06:17:17;29.03;;;16.30;;
15317;SDS011;7759;52.528;13.346;2024-03-02T06:19:44;30.00;;;17.53;;
15317;SDS011;7759;52.528;13.346;2024-03-02T06:22:09;28.53;;;16.43;;
15317;SDS011;7759;52.528;13.346;2024-03-02T06:24:36;27.67;;;15.60;;
15317;SDS011;7759;52.528;13.346;2024-03-02T06:27:02;27.37;;;15.30;;
15317;SDS011;7759;52.528;13.346;2024-03-02T06:29:29;25.50;;;13.67;;
15317;SDS011;7759;52.528;13.346;2024-03-02T06:31:57;30.37;;;15.70;;
15317;SDS011;7759;52.528;13.346;2024-03-02T06:34:23;23.47;;;14.63;;
15317;SDS011;7759;52.528;13.346;2024-03-02T06:36:49;29.87;;;15.53;;
15317;SDS011;7759;52.528;13.346;2024-03-02T06:39:15;27.77;;;16.57;;
15317;SDS011;7759;52.528;13.346;2024-03-02T06:41:41;25.63;;;14.97;;
15317;SDS011;7759;52.528;13.346;2024-03-02T06:44:12;31.23;;;17.13;;
15317;SDS011;7759;52.528;13.346;2024-03-02T06:46:38;30.27;;;15.70;;
15317;SDS011;7759;52.528;13.346;2024-03-02T06:49:04;33.97;;;18.07;;
15317;SDS011;7759;52.528;13.346;2024-03-02T06:51:29;28.70;;;16.10;;
15317;SDS011;7759;52.528;13.346;2024-03-02T06:53:55;31.67;;;16.90;;
15317;SDS011;7759;52.528;13.346;2024-03-02T06:56:21;31.03;;;15.83;;
15317;SDS011;7759;52.528;13.346;2024-03-02T06:58:47;29.90;;;15.23;;
15317;SDS011;7759;52.528;13.346;2024-03-02T07:01:13;29.23;;;15.67;;
15317;SDS011;7759;52.528;13.346;2024-03-02T07:03:39;26.70;;;15.53;;
15317;SDS011;7759;52.528;13.346;2024-03-02T07:06:05;29.83;;;16.93;;
15317;SDS011;7759;52.528;13.346;2024-03-02T07:08:31;29.83;;;17.37;;
15317;SDS011;7759;52.528;13.346;2024-03-02T07:10:57;31.00;;;16.30;;
15317;SDS011;7759;52.528;13.346;2024-03-02T07:13:23;30.20;;;18.03;;
15317;SDS011;7759;52.528;13.346;2024-03-02T07:15:49;31.40;;;17.30;;
15317;SDS011;7759;52.528;13.346;2024-03-02T07:18:35;31.57;;;18.10;;
15317;SDS011;7759;52.528;13.346;2024-03-02T07:21:06;31.13;;;16.63;;
15317;SDS011;7759;52.528;13.346;2024-03-02T07:23:32;32.57;;;17.97;;
15317;SDS011;7759;52.528;13.346;2024-03-02T07:25:58;34.73;;;18.10;;
15317;SDS011;7759;52.528;13.346;2024-03-02T07:28:25;29.73;;;15.80;;
15317;SDS011;7759;52.528;13.346;2024-03-02T07:31:01;35.17;;;17.60;;
15317;SDS011;7759;52.528;13.346;2024-03-02T07:33:27;31.47;;;16.20;;
15317;SDS011;7759;52.528;13.346;2024-03-02T07:35:54;28.20;;;15.57;;
15317;SDS011;7759;52.528;13.346;2024-03-02T07:38:20;27.73;;;15.80;;
15317;SDS011;7759;52.528;13.346;2024-03-02T07:40:47;33.43;;;17.03;;
15317;SDS011;7759;52.528;13.346;2024-03-02T07:43:15;29.63;;;15.93;;
15317;SDS011;7759;52.528;13.346;2024-03-02T07:45:41;32.47;;;17.50;;
15317;SDS011;7759;52.528;13.346;2024-03-02T07:48:07;34.87;;;17.77;;
15317;SDS011;7759;52.528;13.346;2024-03-02T07:50:33;31.00;;;16.73;;
15317;SDS011;7759;52.528;13.346;2024-03-02T07:53:00;32.27;;;16.70;;
15317;SDS011;7759;52.528;13.346;2024-03-02T07:55:26;35.43;;;17.90;;
15317;SDS011;7759;52.528;13.346;2024-03-02T07:57:52;34.40;;;18.90;;
15317;SDS011;7759;52.528;13.346;2024-03-02T08:00:18;33.03;;;17.93;;
15317;SDS011;7759;52.528;13.346;2024-03-02T08:02:44;35.00;;;17.97;;
15317;SDS011;7759;52.528;13.346;2024-03-02T08:05:10;30.50;;;16.30;;
15317;SDS011;7759;52.528;13.346;2024-03-02T08:07:36;32.97;;;17.73;;
15317;SDS011;7759;52.528;13.346;2024-03-02T08:10:02;28.57;;;16.53;;
15317;SDS011;7759;52.528;13.346;2024-03-02T08:12:28;33.03;;;16.83;;
15317;SDS011;7759;52.528;13.346;2024-03-02T08:14:54;34.87;;;19.20;;
15317;SDS011;7759;52.528;13.346;2024-03-02T08:17:20;31.33;;;17.97;;
15317;SDS011;7759;52.528;13.346;2024-03-02T08:19:46;28.30;;;16.30;;
15317;SDS011;7759;52.528;13.346;2024-03-02T08:22:13;32.70;;;17.80;;
15317;SDS011;7759;52.528;13.346;2024-03-02T08:24:39;29.23;;;16.63;;
15317;SDS011;7759;52.528;13.346;2024-03-02T08:27:05;26.73;;;15.57;;
15317;SDS011;7759;52.528;13.346;2024-03-02T08:29:31;34.27;;;16.93;;
15317;SDS011;7759;52.528;13.346;2024-03-02T08:31:57;27.97;;;16.27;;
15317;SDS011;7759;52.528;13.346;2024-03-02T08:34:23;30.50;;;15.80;;
15317;SDS011;7759;52.528;13.346;2024-03-02T08:36:49;25.97;;;14.50;;
15317;SDS011;7759;52.528;13.346;2024-03-02T08:39:15;25.73;;;15.60;;
15317;SDS011;7759;52.528;13.346;2024-03-02T08:41:41;37.73;;;18.13;;
15317;SDS011;7759;52.528;13.346;2024-03-02T08:44:08;38.17;;;19.63;;
15317;SDS011;7759;52.528;13.346;2024-03-02T08:46:34;40.27;;;20.33;;
15317;SDS011;7759;52.528;13.346;2024-03-02T08:49:00;31.60;;;17.73;;
15317;SDS011;7759;52.528;13.346;2024-03-02T08:51:26;34.13;;;18.30;;
15317;SDS011;7759;52.528;13.346;2024-03-02T08:53:52;30.73;;;15.73;;
15317;SDS011;7759;52.528;13.346;2024-03-02T08:56:18;33.53;;;17.83;;
15317;SDS011;7759;52.528;13.346;2024-03-02T08:58:45;29.73;;;15.87;;
15317;SDS011;7759;52.528;13.346;2024-03-02T09:01:11;29.20;;;17.33;;
15317;SDS011;7759;52.528;13.346;2024-03-02T09:03:37;29.90;;;16.80;;
15317;SDS011;7759;52.528;13.346;2024-03-02T09:06:03;26.47;;;15.47;;
15317;SDS011;7759;52.528;13.346;2024-03-02T09:08:29;31.70;;;17.27;;
15317;SDS011;7759;52.528;13.346;2024-03-02T09:10:56;28.73;;;15.87;;
15317;SDS011;7759;52.528;13.346;2024-03-02T09:13:22;26.97;;;15.27;;
15317;SDS011;7759;52.528;13.346;2024-03-02T09:15:47;27.77;;;15.83;;
15317;SDS011;7759;52.528;13.346;2024-03-02T09:18:13;30.87;;;15.47;;
15317;SDS011;7759;52.528;13.346;2024-03-02T09:20:40;25.27;;;14.97;;
15317;SDS011;7759;52.528;13.346;2024-03-02T09:23:06;29.60;;;15.40;;
15317;SDS011;7759;52.528;13.346;2024-03-02T09:25:32;27.70;;;15.80;;
15317;SDS011;7759;52.528;13.346;2024-03-02T09:27:58;30.37;;;17.83;;
15317;SDS011;7759;52.528;13.346;2024-03-02T09:30:24;29.67;;;16.30;;
15317;SDS011;7759;52.528;13.346;2024-03-02T09:32:49;23.83;;;13.93;;
15317;SDS011;7759;52.528;13.346;2024-03-02T09:35:15;31.83;;;16.60;;
15317;SDS011;7759;52.528;13.346;2024-03-02T09:37:41;29.17;;;16.33;;
15317;SDS011;7759;52.528;13.346;2024-03-02T09:40:07;29.43;;;17.57;;
15317;SDS011;7759;52.528;13.346;2024-03-02T09:42:33;30.63;;;15.57;;
15317;SDS011;7759;52.528;13.346;2024-03-02T09:44:59;28.33;;;15.90;;
15317;SDS011;7759;52.528;13.346;2024-03-02T09:47:25;43.37;;;20.27;;
15317;SDS011;7759;52.528;13.346;2024-03-02T09:49:51;23.77;;;14.53;;
15317;SDS011;7759;52.528;13.346;2024-03-02T09:52:17;28.17;;;16.30;;
15317;SDS011;7759;52.528;13.346;2024-03-02T09:54:43;26.03;;;13.97;;
15317;SDS011;7759;52.528;13.346;2024-03-02T09:57:09;28.47;;;15.83;;
15317;SDS011;7759;52.528;13.346;2024-03-02T09:59:35;28.47;;;14.73;;
15317;SDS011;7759;52.528;13.346;2024-03-02T10:02:02;29.60;;;15.60;;
15317;SDS011;7759;52.528;13.346;2024-03-02T10:04:31;28.87;;;15.73;;
15317;SDS011;7759;52.528;13.346;2024-03-02T10:07:09;28.17;;;15.10;;
15317;SDS011;7759;52.528;13.346;2024-03-02T10:09:36;22.43;;;13.33;;
15317;SDS011;7759;52.528;13.346;2024-03-02T10:12:06;28.00;;;14.17;;
15317;SDS011;7759;52.528;13.346;2024-03-02T10:14:32;23.07;;;12.67;;
15317;SDS011;7759;52.528;13.346;2024-03-02T10:17:02;25.10;;;14.97;;
15317;SDS011;7759;52.528;13.346;2024-03-02T10:19:29;29.07;;;15.90;;
15317;SDS011;7759;52.528;13.346;2024-03-02T10:21:59;22.40;;;13.50;;
15317;SDS011;7759;52.528;13.346;2024-03-02T10:24:25;26.63;;;14.70;;
15317;SDS011;7759;52.528;13.346;2024-03-02T10:26:51;26.77;;;15.27;;
15317;SDS011;7759;52.528;13.346;2024-03-02T10:29:17;25.73;;;15.10;;
15317;SDS011;7759;52.528;13.346;2024-03-02T10:31:45;26.73;;;13.97;;
15317;SDS011;7759;52.528;13.346;2024-03-02T10:34:11;22.90;;;12.97;;
15317;SDS011;7759;52.528;13.346;2024-03-02T10:36:40;24.83;;;14.63;;
15317;SDS011;7759;52.528;13.346;2024-03-02T10:39:06;23.77;;;12.90;;
15317;SDS011;7759;52.528;13.346;2024-03-02T10:41:33;19.93;;;12.23;;
15317;SDS011;7759;52.528;13.346;2024-03-02T10:43:59;22.60;;;12.70;;
15317;SDS011;7759;52.528;13.346;2024-03-02T10:46:27;23.13;;;14.43;;
15317;SDS011;7759;52.528;13.346;2024-03-02T10:48:54;21.47;;;12.50;;
15317;SDS011;7759;52.528;13.346;2024-03-02T10:51:20;25.87;;;13.50;;
15317;SDS011;7759;52.528;13.346;2024-03-02T10:53:46;23.80;;;13.37;;
15317;SDS011;7759;52.528;13.346;2024-03-02T10:56:12;22.27;;;12.60;;
15317;SDS011;7759;52.528;13.346;2024-03-02T10:58:41;19.37;;;11.73;;
15317;SDS011;7759;52.528;13.346;2024-03-02T11:01:07;23.43;;;12.43;;
15317;SDS011;7759;52.528;13.346;2024-03-02T11:03:35;21.83;;;12.23;;
15317;SDS011;7759;52.528;13.346;2024-03-02T11:06:06;20.57;;;11.43;;
15317;SDS011;7759;52.528;13.346;2024-03-02T11:08:33;20.00;;;11.10;;
15317;SDS011;7759;52.528;13.346;2024-03-02T11:11:03;18.87;;;11.30;;
15317;SDS011;7759;52.528;13.346;2024-03-02T11:13:32;22.50;;;11.37;;
15317;SDS011;7759;52.528;13.346;2024-03-02T11:15:59;20.30;;;11.43;;
15317;SDS011;7759;52.528;13.346;2024-03-02T11:18:28;20.73;;;11.20;;
15317;SDS011;7759;52.528;13.346;2024-03-02T11:20:54;17.37;;;11.33;;
15317;SDS011;7759;52.528;13.346;2024-03-02T11:23:21;21.40;;;12.57;;
15317;SDS011;7759;52.528;13.346;2024-03-02T11:26:16;18.83;;;11.10;;
15317;SDS011;7759;52.528;13.346;2024-03-02T11:28:43;17.87;;;9.70;;
15317;SDS011;7759;52.528;13.346;2024-03-02T11:31:09;16.73;;;9.77;;
15317;SDS011;7759;52.528;13.346;2024-03-02T11:33:34;18.33;;;10.03;;
15317;SDS011;7759;52.528;13.346;2024-03-02T11:36:00;18.20;;;10.50;;
15317;SDS011;7759;52.528;13.346;2024-03-02T11:38:27;16.47;;;10.53;;
15317;SDS011;7759;52.528;13.346;2024-03-02T11:40:54;18.30;;;10.27;;
15317;SDS011;7759;52.528;13.346;2024-03-02T11:43:20;22.83;;;11.57;;
15317;SDS011;7759;52.528;13.346;2024-03-02T11:45:46;20.67;;;11.37;;
15317;SDS011;7759;52.528;13.346;2024-03-02T11:48:15;17.57;;;10.57;;
15317;SDS011;7759;52.528;13.346;2024-03-02T11:50:48;20.80;;;10.77;;
15317;SDS011;7759;52.528;13.346;2024-03-02T11:53:14;20.03;;;10.63;;
15317;SDS011;7759;52.528;13.346;2024-03-02T11:55:40;17.87;;;10.50;;
15317;SDS011;7759;52.528;13.346;2024-03-02T11:58:11;19.13;;;10.97;;
15317;SDS011;7759;52.528;13.346;2024-03-02T12:00:37;19.07;;;11.50;;
15317;SDS011;7759;52.528;13.346;2024-03-02T12:03:06;15.30;;;9.57;;
15317;SDS011;7759;52.528;13.346;2024-03-02T12:05:33;20.80;;;12.07;;
15317;SDS011;7759;52.528;13.346;2024-03-02T12:07:59;18.20;;;10.80;;
15317;SDS011;7759;52.528;13.346;2024-03-02T12:10:26;17.00;;;9.87;;
15317;SDS011;7759;52.528;13.346;2024-03-02T12:12:56;20.70;;;10.47;;
15317;SDS011;7759;52.528;13.346;2024-03-02T12:15:22;17.77;;;10.07;;
15317;SDS011;7759;52.528;13.346;2024-03-02T12:17:49;17.47;;;9.33;;
15317;SDS011;7759;52.528;13.346;2024-03-02T12:20:18;16.83;;;10.00;;
15317;SDS011;7759;52.528;13.346;2024-03-02T12:22:43;19.50;;;10.43;;
15317;SDS011;7759;52.528;13.346;2024-03-02T12:25:10;17.10;;;10.03;;
15317;SDS011;7759;52.528;13.346;2024-03-02T12:27:38;18.17;;;10.23;;
15317;SDS011;7759;52.528;13.346;2024-03-02T12:30:04;22.30;;;10.97;;
15317;SDS011;7759;52.528;13.346;2024-03-02T12:32:33;17.48;;;10.57;;
15317;SDS011;7759;52.528;13.346;2024-03-02T12:34:59;18.67;;;10.77;;
15317;SDS011;7759;52.528;13.346;2024-03-02T12:37:25;18.67;;;10.33;;
15317;SDS011;7759;52.528;13.346;2024-03-02T12:39:53;20.07;;;10.50;;
15317;SDS011;7759;52.528;13.346;2024-03-02T12:42:19;19.63;;;10.80;;
15317;SDS011;7759;52.528;13.346;2024-03-02T12:44:44;19.27;;;12.43;;
15317;SDS011;7759;52.528;13.346;2024-03-02T12:47:10;19.60;;;11.87;;
15317;SDS011;7759;52.528;13.346;2024-03-02T12:49:39;20.53;;;12.23;;
15317;SDS011;7759;52.528;13.346;2024-03-02T12:52:05;21.10;;;12.02;;
15317;SDS011;7759;52.528;13.346;2024-03-02T12:54:31;18.40;;;9.90;;
15317;SDS011;7759;52.528;13.346;2024-03-02T12:56:58;19.83;;;11.90;;
15317;SDS011;7759;52.528;13.346;2024-03-02T12:59:24;19.27;;;11.77;;
15317;SDS011;7759;52.528;13.346;2024-03-02T13:01:55;19.23;;;11.03;;
15317;SDS011;7759;52.528;13.346;2024-03-02T13:04:28;22.53;;;12.10;;
15317;SDS011;7759;52.528;13.346;2024-03-02T13:06:54;18.53;;;11.17;;
15317;SDS011;7759;52.528;13.346;2024-03-02T13:09:22;17.67;;;10.27;;
15317;SDS011;7759;52.528;13.346;2024-03-02T13:11:48;17.90;;;11.50;;
15317;SDS011;7759;52.528;13.346;2024-03-02T13:14:14;22.60;;;11.90;;
15317;SDS011;7759;52.528;13.346;2024-03-02T13:16:40;17.48;;;9.95;;
15317;SDS011;7759;52.528;13.346;2024-03-02T13:19:07;22.17;;;12.43;;
15317;SDS011;7759;52.528;13.346;2024-03-02T13:21:33;17.50;;;10.77;;
15317;SDS011;7759;52.528;13.346;2024-03-02T13:23:59;21.42;;;11.60;;
15317;SDS011;7759;52.528;13.346;2024-03-02T13:26:26;18.93;;;10.07;;
15317;SDS011;7759;52.528;13.346;2024-03-02T13:28:52;20.70;;;11.32;;
15317;SDS011;7759;52.528;13.346;2024-03-02T13:31:18;17.40;;;10.27;;
15317;SDS011;7759;52.528;13.346;2024-03-02T13:33:44;18.37;;;10.57;;
15317;SDS011;7759;52.528;13.346;2024-03-02T13:36:10;18.20;;;10.90;;
15317;SDS011;7759;52.528;13.346;2024-03-02T13:38:36;16.13;;;9.30;;
15317;SDS011;7759;52.528;13.346;2024-03-02T13:41:02;17.23;;;10.43;;
15317;SDS011;7759;52.528;13.346;2024-03-02T13:43:27;16.92;;;9.18;;
15317;SDS011;7759;52.528;13.346;2024-03-02T13:45:57;16.48;;;9.85;;
15317;SDS011;7759;52.528;13.346;2024-03-02T13:48:23;18.85;;;10.45;;
15317;SDS011;7759;52.528;13.346;2024-03-02T13:50:51;14.45;;;8.00;;
15317;SDS011;7759;52.528;13.346;2024-03-02T13:53:17;14.43;;;9.27;;
15317;SDS011;7759;52.528;13.346;2024-03-02T13:55:43;14.57;;;8.83;;
15317;SDS011;7759;52.528;13.346;2024-03-02T13:58:09;17.85;;;10.05;;
15317;SDS011;7759;52.528;13.346;2024-03-02T14:00:36;16.70;;;9.95;;
15317;SDS011;7759;52.528;13.346;2024-03-02T14:03:03;18.70;;;9.93;;
15317;SDS011;7759;52.528;13.346;2024-03-02T14:05:29;15.70;;;9.35;;
15317;SDS011;7759;52.528;13.346;2024-03-02T14:07:55;17.95;;;10.43;;
15317;SDS011;7759;52.528;13.346;2024-03-02T14:10:21;16.20;;;9.50;;
15317;SDS011;7759;52.528;13.346;2024-03-02T14:12:48;17.97;;;10.33;;
15317;SDS011;7759;52.528;13.346;2024-03-02T14:15:14;18.52;;;9.30;;
15317;SDS011;7759;52.528;13.346;2024-03-02T14:17:40;17.05;;;9.13;;
15317;SDS011;7759;52.528;13.346;2024-03-02T14:20:06;14.00;;;9.02;;
15317;SDS011;7759;52.528;13.346;2024-03-02T14:22:32;13.25;;;8.25;;